sensor_id;sensor_type;location;lat;lon;timestamp;P1;durP1;ratioP1;P2;durP2;ratioP2
13999;SDS011;7075;53.574;10.054;2023-07-31T00:00:33;6.03;;;1.57;;
13999;SDS011;7075;53.574;10.054;2023-07-31T00:02:59;4.40;;;1.50;;
13999;SDS011;7075;53.574;10.054;2023-07-31T00:05:25;2.23;;;1.33;;
13999;SDS011;7075;53.574;10.054;2023-07-31T00:07:50;4.40;;;1.77;;
13999;SDS011;7075;53.574;10.054;2023-07-31T00:10:16;7.80;;;2.50;;
13999;SDS011;7075;53.574;10.054;2023-07-31T00:12:42;3.07;;;1.43;;
13999;SDS011;7075;53.574;10.054;2023-07-31T00:15:10;5.13;;;2.27;;
13999;SDS011;7075;53.574;10.054;2023-07-31T00:17:36;4.70;;;1.60;;
13999;SDS011;7075;53.574;10.054;2023-07-31T00:20:02;8.03;;;2.13;;
13999;SDS011;7075;53.574;10.054;2023-07-31T00:22:28;8.17;;;2.10;;
13999;SDS011;7075;53.574;10.054;2023-07-31T00:24:55;4.73;;;1.83;;
13999;SDS011;7075;53.574;10.054;2023-07-31T00:27:21;4.63;;;1.77;;
13999;SDS011;7075;53.574;10.054;2023-07-31T00:29:46;4.73;;;2.17;;
13999;SDS011;7075;53.574;10.054;2023-07-31T00:32:12;3.77;;;1.60;;
13999;SDS011;7075;53.574;10.054;2023-07-31T00:34:37;5.30;;;2.07;;
13999;SDS011;7075;53.574;10.054;2023-07-31T00:37:03;5.90;;;1.90;;
13999;SDS011;7075;53.574;10.054;2023-07-31T00:39:30;5.70;;;2.13;;
13999;SDS011;7075;53.574;10.054;2023-07-31T00:41:55;7.00;;;2.70;;
13999;SDS011;7075;53.574;10.054;2023-07-31T00:44:21;6.13;;;2.20;;
13999;SDS011;7075;53.574;10.054;2023-07-31T00:46:47;6.97;;;2.30;;
13999;SDS011;7075;53.574;10.054;2023-07-31T00:49:13;6.33;;;2.17;;
13999;SDS011;7075;53.574;10.054;2023-07-31T00:51:38;4.47;;;1.67;;
13999;SDS011;7075;53.574;10.054;2023-07-31T00:54:04;5.97;;;2.40;;
13999;SDS011;7075;53.574;10.054;2023-07-31T00:56:31;4.43;;;1.90;;
13999;SDS011;7075;53.574;10.054;2023-07-31T00:58:57;6.87;;;2.00;;
13999;SDS011;7075;53.574;10.054;2023-07-31T01:01:23;8.13;;;2.53;;
13999;SDS011;7075;53.574;10.054;2023-07-31T01:03:49;3.57;;;1.70;;
13999;SDS011;7075;53.574;10.054;2023-07-31T01:06:40;6.50;;;2.50;;
13999;SDS011;7075;53.574;10.054;2023-07-31T01:11:51;4.77;;;1.80;;
13999;SDS011;7075;53.574;10.054;2023-07-31T01:14:18;7.33;;;2.40;;
13999;SDS011;7075;53.574;10.054;2023-07-31T01:16:44;4.90;;;2.00;;
13999;SDS011;7075;53.574;10.054;2023-07-31T01:19:10;5.60;;;1.80;;
13999;SDS011;7075;53.574;10.054;2023-07-31T01:22:24;7.43;;;2.50;;
13999;SDS011;7075;53.574;10.054;2023-07-31T01:27:34;10.83;;;2.73;;
13999;SDS011;7075;53.574;10.054;2023-07-31T01:32:39;4.93;;;2.00;;
13999;SDS011;7075;53.574;10.054;2023-07-31T01:35:07;13.67;;;2.50;;
13999;SDS011;7075;53.574;10.054;2023-07-31T01:37:33;5.33;;;2.00;;
13999;SDS011;7075;53.574;10.054;2023-07-31T01:39:59;6.37;;;2.20;;
13999;SDS011;7075;53.574;10.054;2023-07-31T01:42:24;6.23;;;2.30;;
13999;SDS011;7075;53.574;10.054;2023-07-31T01:44:50;7.00;;;2.73;;
13999;SDS011;7075;53.574;10.054;2023-07-31T01:47:16;6.00;;;2.70;;
13999;SDS011;7075;53.574;10.054;2023-07-31T01:49:41;9.60;;;2.63;;
13999;SDS011;7075;53.574;10.054;2023-07-31T01:52:07;5.37;;;2.70;;
13999;SDS011;7075;53.574;10.054;2023-07-31T01:54:33;8.37;;;2.30;;
13999;SDS011;7075;53.574;10.054;2023-07-31T01:56:59;6.13;;;2.20;;
13999;SDS011;7075;53.574;10.054;2023-07-31T01:59:24;4.93;;;2.30;;
13999;SDS011;7075;53.574;10.054;2023-07-31T02:01:50;4.13;;;2.07;;
13999;SDS011;7075;53.574;10.054;2023-07-31T02:04:15;6.00;;;2.63;;
13999;SDS011;7075;53.574;10.054;2023-07-31T02:06:41;4.17;;;2.20;;
13999;SDS011;7075;53.574;10.054;2023-07-31T02:09:07;4.77;;;2.30;;
13999;SDS011;7075;53.574;10.054;2023-07-31T02:11:32;7.00;;;2.50;;
13999;SDS011;7075;53.574;10.054;2023-07-31T02:13:58;6.17;;;2.50;;
13999;SDS011;7075;53.574;10.054;2023-07-31T02:16:23;6.10;;;2.10;;
13999;SDS011;7075;53.574;10.054;2023-07-31T02:18:59;3.97;;;2.03;;
13999;SDS011;7075;53.574;10.054;2023-07-31T02:21:25;11.57;;;2.97;;
13999;SDS011;7075;53.574;10.054;2023-07-31T02:23:50;6.17;;;2.30;;
13999;SDS011;7075;53.574;10.054;2023-07-31T02:26:16;4.87;;;2.00;;
13999;SDS011;7075;53.574;10.054;2023-07-31T02:28:41;4.23;;;2.50;;
13999;SDS011;7075;53.574;10.054;2023-07-31T02:31:08;4.50;;;1.87;;
13999;SDS011;7075;53.574;10.054;2023-07-31T02:33:33;4.60;;;2.87;;
13999;SDS011;7075;53.574;10.054;2023-07-31T02:35:59;5.03;;;2.20;;
13999;SDS011;7075;53.574;10.054;2023-07-31T02:38:25;4.37;;;1.97;;
13999;SDS011;7075;53.574;10.054;2023-07-31T02:40:50;4.13;;;2.20;;
13999;SDS011;7075;53.574;10.054;2023-07-31T02:43:16;6.27;;;2.07;;
13999;SDS011;7075;53.574;10.054;2023-07-31T02:45:43;6.70;;;2.20;;
13999;SDS011;7075;53.574;10.054;2023-07-31T02:48:08;8.10;;;2.33;;
13999;SDS011;7075;53.574;10.054;2023-07-31T02:50:34;4.20;;;2.23;;
13999;SDS011;7075;53.574;10.054;2023-07-31T02:53:00;7.83;;;2.07;;
13999;SDS011;7075;53.574;10.054;2023-07-31T02:55:25;5.33;;;2.07;;
13999;SDS011;7075;53.574;10.054;2023-07-31T02:57:51;5.33;;;2.53;;
13999;SDS011;7075;53.574;10.054;2023-07-31T03:00:17;2.67;;;1.80;;
13999;SDS011;7075;53.574;10.054;2023-07-31T03:02:43;5.17;;;2.10;;
13999;SDS011;7075;53.574;10.054;2023-07-31T03:05:09;4.03;;;2.10;;
13999;SDS011;7075;53.574;10.054;2023-07-31T03:07:35;6.10;;;2.13;;
13999;SDS011;7075;53.574;10.054;2023-07-31T03:10:00;4.73;;;1.93;;
13999;SDS011;7075;53.574;10.054;2023-07-31T03:12:29;2.60;;;1.70;;
13999;SDS011;7075;53.574;10.054;2023-07-31T03:14:54;3.13;;;2.07;;
13999;SDS011;7075;53.574;10.054;2023-07-31T03:17:20;4.73;;;1.80;;
13999;SDS011;7075;53.574;10.054;2023-07-31T03:19:46;6.67;;;1.57;;
13999;SDS011;7075;53.574;10.054;2023-07-31T03:22:11;4.80;;;1.87;;
13999;SDS011;7075;53.574;10.054;2023-07-31T03:24:37;5.37;;;2.13;;
13999;SDS011;7075;53.574;10.054;2023-07-31T03:27:03;3.33;;;1.83;;
13999;SDS011;7075;53.574;10.054;2023-07-31T03:29:29;6.23;;;2.50;;
13999;SDS011;7075;53.574;10.054;2023-07-31T03:32:04;4.27;;;2.00;;
13999;SDS011;7075;53.574;10.054;2023-07-31T03:34:30;4.23;;;2.27;;
13999;SDS011;7075;53.574;10.054;2023-07-31T03:36:57;4.70;;;1.93;;
13999;SDS011;7075;53.574;10.054;2023-07-31T03:39:23;5.60;;;1.83;;
13999;SDS011;7075;53.574;10.054;2023-07-31T03:41:48;3.10;;;2.10;;
13999;SDS011;7075;53.574;10.054;2023-07-31T03:44:23;3.40;;;2.00;;
13999;SDS011;7075;53.574;10.054;2023-07-31T03:46:48;4.30;;;1.73;;
13999;SDS011;7075;53.574;10.054;2023-07-31T03:49:14;4.87;;;1.93;;
13999;SDS011;7075;53.574;10.054;2023-07-31T03:51:40;2.77;;;1.77;;
13999;SDS011;7075;53.574;10.054;2023-07-31T03:54:06;4.40;;;1.67;;
13999;SDS011;7075;53.574;10.054;2023-07-31T03:56:32;3.73;;;2.20;;
13999;SDS011;7075;53.574;10.054;2023-07-31T03:58:58;3.27;;;1.90;;
13999;SDS011;7075;53.574;10.054;2023-07-31T04:01:24;4.80;;;2.40;;
13999;SDS011;7075;53.574;10.054;2023-07-31T04:03:49;6.03;;;2.47;;
13999;SDS011;7075;53.574;10.054;2023-07-31T04:06:15;2.13;;;1.73;;
13999;SDS011;7075;53.574;10.054;2023-07-31T04:08:43;4.90;;;1.90;;
13999;SDS011;7075;53.574;10.054;2023-07-31T04:11:10;2.13;;;1.63;;
13999;SDS011;7075;53.574;10.054;2023-07-31T04:13:37;5.23;;;2.13;;
13999;SDS011;7075;53.574;10.054;2023-07-31T04:16:02;4.20;;;1.90;;
13999;SDS011;7075;53.574;10.054;2023-07-31T04:18:28;2.30;;;1.57;;
13999;SDS011;7075;53.574;10.054;2023-07-31T04:20:56;1.90;;;1.70;;
13999;SDS011;7075;53.574;10.054;2023-07-31T04:23:23;3.40;;;1.90;;
13999;SDS011;7075;53.574;10.054;2023-07-31T04:25:48;4.33;;;1.87;;
13999;SDS011;7075;53.574;10.054;2023-07-31T04:28:14;4.33;;;1.77;;
13999;SDS011;7075;53.574;10.054;2023-07-31T04:30:39;2.23;;;1.63;;
13999;SDS011;7075;53.574;10.054;2023-07-31T04:33:05;7.80;;;2.20;;
13999;SDS011;7075;53.574;10.054;2023-07-31T04:35:31;3.67;;;2.07;;
13999;SDS011;7075;53.574;10.054;2023-07-31T04:37:56;3.80;;;2.10;;
13999;SDS011;7075;53.574;10.054;2023-07-31T04:40:22;2.83;;;1.83;;
13999;SDS011;7075;53.574;10.054;2023-07-31T04:42:47;3.33;;;1.73;;
13999;SDS011;7075;53.574;10.054;2023-07-31T04:45:13;2.40;;;1.70;;
13999;SDS011;7075;53.574;10.054;2023-07-31T04:47:39;4.53;;;2.00;;
13999;SDS011;7075;53.574;10.054;2023-07-31T04:50:05;4.93;;;1.50;;
13999;SDS011;7075;53.574;10.054;2023-07-31T04:52:31;2.90;;;2.07;;
13999;SDS011;7075;53.574;10.054;2023-07-31T04:54:57;2.97;;;1.70;;
13999;SDS011;7075;53.574;10.054;2023-07-31T04:57:22;2.17;;;1.47;;
13999;SDS011;7075;53.574;10.054;2023-07-31T04:59:48;2.57;;;1.67;;
13999;SDS011;7075;53.574;10.054;2023-07-31T05:02:13;2.00;;;1.43;;
13999;SDS011;7075;53.574;10.054;2023-07-31T05:04:40;2.00;;;1.60;;
13999;SDS011;7075;53.574;10.054;2023-07-31T05:07:06;2.57;;;1.53;;
13999;SDS011;7075;53.574;10.054;2023-07-31T05:09:32;2.53;;;2.00;;
13999;SDS011;7075;53.574;10.054;2023-07-31T05:11:57;2.20;;;1.80;;
13999;SDS011;7075;53.574;10.054;2023-07-31T05:14:23;1.73;;;1.60;;
13999;SDS011;7075;53.574;10.054;2023-07-31T05:16:48;2.67;;;1.70;;
13999;SDS011;7075;53.574;10.054;2023-07-31T05:19:14;3.00;;;2.00;;
13999;SDS011;7075;53.574;10.054;2023-07-31T05:21:39;3.07;;;1.90;;
13999;SDS011;7075;53.574;10.054;2023-07-31T05:24:05;2.00;;;1.90;;
13999;SDS011;7075;53.574;10.054;2023-07-31T05:26:31;4.80;;;1.80;;
13999;SDS011;7075;53.574;10.054;2023-07-31T05:28:57;3.03;;;2.33;;
13999;SDS011;7075;53.574;10.054;2023-07-31T05:31:23;2.93;;;1.90;;
13999;SDS011;7075;53.574;10.054;2023-07-31T05:33:49;2.40;;;1.90;;
13999;SDS011;7075;53.574;10.054;2023-07-31T05:36:15;2.43;;;2.20;;
13999;SDS011;7075;53.574;10.054;2023-07-31T05:38:41;1.80;;;1.70;;
13999;SDS011;7075;53.574;10.054;2023-07-31T05:41:08;2.10;;;1.70;;
13999;SDS011;7075;53.574;10.054;2023-07-31T05:43:34;2.73;;;2.10;;
13999;SDS011;7075;53.574;10.054;2023-07-31T05:45:59;4.03;;;2.20;;
13999;SDS011;7075;53.574;10.054;2023-07-31T05:48:26;3.30;;;2.10;;
13999;SDS011;7075;53.574;10.054;2023-07-31T05:50:52;2.33;;;2.13;;
13999;SDS011;7075;53.574;10.054;2023-07-31T05:53:17;3.47;;;2.43;;
13999;SDS011;7075;53.574;10.054;2023-07-31T05:55:43;2.53;;;1.97;;
13999;SDS011;7075;53.574;10.054;2023-07-31T05:58:08;2.33;;;2.03;;
13999;SDS011;7075;53.574;10.054;2023-07-31T06:00:34;3.80;;;2.40;;
13999;SDS011;7075;53.574;10.054;2023-07-31T06:03:00;3.47;;;2.60;;
13999;SDS011;7075;53.574;10.054;2023-07-31T06:05:25;2.93;;;2.20;;
13999;SDS011;7075;53.574;10.054;2023-07-31T06:07:53;2.40;;;2.20;;
13999;SDS011;7075;53.574;10.054;2023-07-31T06:10:18;2.20;;;2.00;;
13999;SDS011;7075;53.574;10.054;2023-07-31T06:12:44;2.17;;;1.97;;
13999;SDS011;7075;53.574;10.054;2023-07-31T06:15:09;2.13;;;1.50;;
13999;SDS011;7075;53.574;10.054;2023-07-31T06:17:37;2.43;;;2.23;;
13999;SDS011;7075;53.574;10.054;2023-07-31T06:20:03;3.37;;;2.10;;
13999;SDS011;7075;53.574;10.054;2023-07-31T06:22:31;2.27;;;1.83;;
13999;SDS011;7075;53.574;10.054;2023-07-31T06:24:56;2.53;;;1.70;;
13999;SDS011;7075;53.574;10.054;2023-07-31T06:27:22;3.30;;;2.07;;
13999;SDS011;7075;53.574;10.054;2023-07-31T06:29:48;1.97;;;1.60;;
13999;SDS011;7075;53.574;10.054;2023-07-31T06:32:15;2.07;;;1.87;;
13999;SDS011;7075;53.574;10.054;2023-07-31T06:34:40;1.83;;;1.70;;
13999;SDS011;7075;53.574;10.054;2023-07-31T06:37:06;2.50;;;1.50;;
13999;SDS011;7075;53.574;10.054;2023-07-31T06:39:31;2.27;;;2.03;;
13999;SDS011;7075;53.574;10.054;2023-07-31T06:41:57;2.03;;;1.77;;
13999;SDS011;7075;53.574;10.054;2023-07-31T06:44:22;1.50;;;1.40;;
13999;SDS011;7075;53.574;10.054;2023-07-31T06:46:48;1.83;;;1.73;;
13999;SDS011;7075;53.574;10.054;2023-07-31T06:49:14;2.50;;;1.70;;
13999;SDS011;7075;53.574;10.054;2023-07-31T06:51:40;2.20;;;2.00;;
13999;SDS011;7075;53.574;10.054;2023-07-31T06:54:07;2.53;;;2.13;;
13999;SDS011;7075;53.574;10.054;2023-07-31T06:56:34;2.43;;;1.70;;
13999;SDS011;7075;53.574;10.054;2023-07-31T06:59:00;1.90;;;1.80;;
13999;SDS011;7075;53.574;10.054;2023-07-31T07:01:26;1.70;;;1.60;;
13999;SDS011;7075;53.574;10.054;2023-07-31T07:03:53;2.93;;;1.90;;
13999;SDS011;7075;53.574;10.054;2023-07-31T07:06:19;2.53;;;1.97;;
13999;SDS011;7075;53.574;10.054;2023-07-31T07:08:45;3.90;;;2.23;;
13999;SDS011;7075;53.574;10.054;2023-07-31T07:11:11;2.10;;;1.90;;
13999;SDS011;7075;53.574;10.054;2023-07-31T07:13:37;3.17;;;2.20;;
13999;SDS011;7075;53.574;10.054;2023-07-31T07:16:03;3.17;;;1.90;;
13999;SDS011;7075;53.574;10.054;2023-07-31T07:18:29;2.33;;;1.90;;
13999;SDS011;7075;53.574;10.054;2023-07-31T07:20:56;2.30;;;2.10;;
13999;SDS011;7075;53.574;10.054;2023-07-31T07:23:23;2.47;;;2.13;;
13999;SDS011;7075;53.574;10.054;2023-07-31T07:25:49;2.90;;;2.13;;
13999;SDS011;7075;53.574;10.054;2023-07-31T07:28:15;3.50;;;2.50;;
13999;SDS011;7075;53.574;10.054;2023-07-31T07:30:41;2.40;;;2.20;;
13999;SDS011;7075;53.574;10.054;2023-07-31T07:33:06;3.07;;;2.57;;
13999;SDS011;7075;53.574;10.054;2023-07-31T07:35:33;2.50;;;2.10;;
13999;SDS011;7075;53.574;10.054;2023-07-31T07:37:59;2.10;;;1.90;;
13999;SDS011;7075;53.574;10.054;2023-07-31T07:40:25;2.20;;;2.00;;
13999;SDS011;7075;53.574;10.054;2023-07-31T07:42:51;3.63;;;2.03;;
13999;SDS011;7075;53.574;10.054;2023-07-31T07:45:17;2.10;;;2.00;;
13999;SDS011;7075;53.574;10.054;2023-07-31T07:47:43;2.03;;;1.70;;
13999;SDS011;7075;53.574;10.054;2023-07-31T07:50:09;2.73;;;1.80;;
13999;SDS011;7075;53.574;10.054;2023-07-31T07:52:35;3.73;;;2.00;;
13999;SDS011;7075;53.574;10.054;2023-07-31T07:55:01;1.63;;;1.53;;
13999;SDS011;7075;53.574;10.054;2023-07-31T07:57:28;2.80;;;2.07;;
13999;SDS011;7075;53.574;10.054;2023-07-31T07:59:54;3.83;;;1.90;;
13999;SDS011;7075;53.574;10.054;2023-07-31T08:02:20;1.90;;;1.80;;
13999;SDS011;7075;53.574;10.054;2023-07-31T08:04:46;2.20;;;2.00;;
13999;SDS011;7075;53.574;10.054;2023-07-31T08:07:12;2.00;;;1.80;;
13999;SDS011;7075;53.574;10.054;2023-07-31T08:09:38;1.73;;;1.63;;
13999;SDS011;7075;53.574;10.054;2023-07-31T08:12:05;2.10;;;1.90;;
13999;SDS011;7075;53.574;10.054;2023-07-31T08:14:31;3.47;;;2.20;;
13999;SDS011;7075;53.574;10.054;2023-07-31T08:16:57;3.03;;;1.70;;
13999;SDS011;7075;53.574;10.054;2023-07-31T08:19:23;2.00;;;1.90;;
13999;SDS011;7075;53.574;10.054;2023-07-31T08:21:49;1.63;;;1.53;;
13999;SDS011;7075;53.574;10.054;2023-07-31T08:24:15;1.73;;;1.60;;
13999;SDS011;7075;53.574;10.054;2023-07-31T08:26:40;1.67;;;1.57;;
13999;SDS011;7075;53.574;10.054;2023-07-31T08:29:06;1.47;;;1.37;;
13999;SDS011;7075;53.574;10.054;2023-07-31T08:31:34;1.50;;;1.40;;
13999;SDS011;7075;53.574;10.054;2023-07-31T08:34:00;1.70;;;1.30;;
13999;SDS011;7075;53.574;10.054;2023-07-31T08:36:26;1.37;;;1.27;;
13999;SDS011;7075;53.574;10.054;2023-07-31T08:38:52;1.60;;;1.50;;
13999;SDS011;7075;53.574;10.054;2023-07-31T08:41:18;2.30;;;1.43;;
13999;SDS011;7075;53.574;10.054;2023-07-31T08:43:45;1.53;;;1.33;;
13999;SDS011;7075;53.574;10.054;2023-07-31T08:46:11;1.90;;;1.50;;
13999;SDS011;7075;53.574;10.054;2023-07-31T08:48:39;2.03;;;1.60;;
13999;SDS011;7075;53.574;10.054;2023-07-31T08:51:06;1.50;;;1.40;;
13999;SDS011;7075;53.574;10.054;2023-07-31T08:53:32;1.40;;;1.17;;
13999;SDS011;7075;53.574;10.054;2023-07-31T08:55:59;2.57;;;1.40;;
13999;SDS011;7075;53.574;10.054;2023-07-31T08:58:25;1.60;;;1.50;;
13999;SDS011;7075;53.574;10.054;2023-07-31T09:00:55;2.23;;;1.40;;
13999;SDS011;7075;53.574;10.054;2023-07-31T09:03:23;1.53;;;1.17;;
13999;SDS011;7075;53.574;10.054;2023-07-31T09:05:50;1.97;;;1.50;;
13999;SDS011;7075;53.574;10.054;2023-07-31T09:08:20;1.47;;;1.30;;
13999;SDS011;7075;53.574;10.054;2023-07-31T09:10:47;2.27;;;1.50;;
13999;SDS011;7075;53.574;10.054;2023-07-31T09:13:15;1.13;;;1.10;;
13999;SDS011;7075;53.574;10.054;2023-07-31T09:15:43;3.03;;;1.50;;
13999;SDS011;7075;53.574;10.054;2023-07-31T09:18:10;1.47;;;1.37;;
13999;SDS011;7075;53.574;10.054;2023-07-31T09:20:36;3.53;;;1.50;;
13999;SDS011;7075;53.574;10.054;2023-07-31T09:23:10;1.47;;;1.10;;
13999;SDS011;7075;53.574;10.054;2023-07-31T09:25:37;1.97;;;1.40;;
13999;SDS011;7075;53.574;10.054;2023-07-31T09:28:07;1.57;;;1.17;;
13999;SDS011;7075;53.574;10.054;2023-07-31T09:30:52;1.03;;;0.93;;
13999;SDS011;7075;53.574;10.054;2023-07-31T09:33:25;1.40;;;1.30;;
13999;SDS011;7075;53.574;10.054;2023-07-31T09:35:51;1.97;;;1.00;;
13999;SDS011;7075;53.574;10.054;2023-07-31T09:38:17;1.50;;;0.80;;
13999;SDS011;7075;53.574;10.054;2023-07-31T09:40:47;3.00;;;1.17;;
13999;SDS011;7075;53.574;10.054;2023-07-31T09:43:16;1.70;;;0.90;;
13999;SDS011;7075;53.574;10.054;2023-07-31T09:45:43;1.13;;;1.03;;
13999;SDS011;7075;53.574;10.054;2023-07-31T09:48:10;1.33;;;0.93;;
13999;SDS011;7075;53.574;10.054;2023-07-31T09:50:40;1.33;;;1.13;;
13999;SDS011;7075;53.574;10.054;2023-07-31T09:53:07;1.17;;;1.07;;
13999;SDS011;7075;53.574;10.054;2023-07-31T09:55:33;1.30;;;1.20;;
13999;SDS011;7075;53.574;10.054;2023-07-31T09:58:02;0.93;;;0.90;;
13999;SDS011;7075;53.574;10.054;2023-07-31T10:00:30;1.63;;;1.10;;
13999;SDS011;7075;53.574;10.054;2023-07-31T10:03:01;2.57;;;1.10;;
13999;SDS011;7075;53.574;10.054;2023-07-31T10:05:31;1.17;;;0.97;;
13999;SDS011;7075;53.574;10.054;2023-07-31T10:08:00;0.90;;;0.83;;
13999;SDS011;7075;53.574;10.054;2023-07-31T10:10:28;1.10;;;1.00;;
13999;SDS011;7075;53.574;10.054;2023-07-31T10:12:59;1.27;;;0.87;;
13999;SDS011;7075;53.574;10.054;2023-07-31T10:15:25;2.83;;;1.00;;
13999;SDS011;7075;53.574;10.054;2023-07-31T10:17:51;0.80;;;0.80;;
13999;SDS011;7075;53.574;10.054;2023-07-31T10:20:17;1.30;;;1.10;;
13999;SDS011;7075;53.574;10.054;2023-07-31T10:22:44;1.23;;;1.00;;
13999;SDS011;7075;53.574;10.054;2023-07-31T10:25:13;2.10;;;1.17;;
13999;SDS011;7075;53.574;10.054;2023-07-31T10:27:41;1.63;;;1.10;;
13999;SDS011;7075;53.574;10.054;2023-07-31T10:30:11;1.80;;;1.50;;
13999;SDS011;7075;53.574;10.054;2023-07-31T10:32:39;1.17;;;0.90;;
13999;SDS011;7075;53.574;10.054;2023-07-31T10:35:07;1.47;;;1.10;;
13999;SDS011;7075;53.574;10.054;2023-07-31T10:37:40;1.23;;;1.07;;
13999;SDS011;7075;53.574;10.054;2023-07-31T10:40:15;2.23;;;1.20;;
13999;SDS011;7075;53.574;10.054;2023-07-31T10:42:49;1.20;;;0.90;;
13999;SDS011;7075;53.574;10.054;2023-07-31T10:48:03;0.90;;;0.90;;
13999;SDS011;7075;53.574;10.054;2023-07-31T10:50:30;1.23;;;0.90;;
13999;SDS011;7075;53.574;10.054;2023-07-31T10:53:00;0.90;;;0.60;;
13999;SDS011;7075;53.574;10.054;2023-07-31T10:55:39;2.40;;;0.57;;
13999;SDS011;7075;53.574;10.054;2023-07-31T10:58:07;0.90;;;0.70;;
13999;SDS011;7075;53.574;10.054;2023-07-31T11:00:33;1.80;;;0.83;;
13999;SDS011;7075;53.574;10.054;2023-07-31T11:03:00;1.40;;;1.30;;
13999;SDS011;7075;53.574;10.054;2023-07-31T11:08:32;1.37;;;1.10;;
13999;SDS011;7075;53.574;10.054;2023-07-31T11:13:32;3.33;;;1.20;;
13999;SDS011;7075;53.574;10.054;2023-07-31T11:16:02;2.00;;;1.20;;
13999;SDS011;7075;53.574;10.054;2023-07-31T11:18:31;3.27;;;1.70;;
13999;SDS011;7075;53.574;10.054;2023-07-31T11:20:59;3.27;;;2.50;;
13999;SDS011;7075;53.574;10.054;2023-07-31T11:23:26;4.23;;;2.33;;
13999;SDS011;7075;53.574;10.054;2023-07-31T11:25:57;3.77;;;2.40;;
13999;SDS011;7075;53.574;10.054;2023-07-31T11:28:30;5.73;;;3.40;;
13999;SDS011;7075;53.574;10.054;2023-07-31T11:31:00;7.10;;;3.53;;
13999;SDS011;7075;53.574;10.054;2023-07-31T11:33:31;7.63;;;4.37;;
13999;SDS011;7075;53.574;10.054;2023-07-31T11:35:58;5.10;;;3.77;;
13999;SDS011;7075;53.574;10.054;2023-07-31T11:38:30;6.73;;;4.70;;
13999;SDS011;7075;53.574;10.054;2023-07-31T11:41:00;7.10;;;4.23;;
13999;SDS011;7075;53.574;10.054;2023-07-31T11:43:33;11.97;;;4.47;;
13999;SDS011;7075;53.574;10.054;2023-07-31T11:46:02;5.90;;;4.53;;
13999;SDS011;7075;53.574;10.054;2023-07-31T11:48:38;7.67;;;5.00;;
13999;SDS011;7075;53.574;10.054;2023-07-31T11:51:08;8.57;;;4.03;;
13999;SDS011;7075;53.574;10.054;2023-07-31T11:56:07;3.40;;;2.03;;
13999;SDS011;7075;53.574;10.054;2023-07-31T11:58:38;2.10;;;1.70;;
13999;SDS011;7075;53.574;10.054;2023-07-31T12:01:06;2.87;;;1.20;;
13999;SDS011;7075;53.574;10.054;2023-07-31T12:03:36;1.20;;;1.00;;
13999;SDS011;7075;53.574;10.054;2023-07-31T12:06:09;0.87;;;0.77;;
13999;SDS011;7075;53.574;10.054;2023-07-31T12:08:37;1.00;;;0.90;;
13999;SDS011;7075;53.574;10.054;2023-07-31T12:11:06;1.00;;;0.63;;
13999;SDS011;7075;53.574;10.054;2023-07-31T12:13:35;1.67;;;0.90;;
13999;SDS011;7075;53.574;10.054;2023-07-31T12:16:06;0.63;;;0.53;;
13999;SDS011;7075;53.574;10.054;2023-07-31T12:18:39;1.03;;;0.70;;
13999;SDS011;7075;53.574;10.054;2023-07-31T12:21:10;0.60;;;0.60;;
13999;SDS011;7075;53.574;10.054;2023-07-31T12:23:43;1.63;;;0.90;;
13999;SDS011;7075;53.574;10.054;2023-07-31T12:26:15;1.10;;;0.70;;
13999;SDS011;7075;53.574;10.054;2023-07-31T12:28:43;1.80;;;1.03;;
13999;SDS011;7075;53.574;10.054;2023-07-31T12:31:15;0.70;;;0.60;;
13999;SDS011;7075;53.574;10.054;2023-07-31T12:33:44;2.57;;;0.60;;
13999;SDS011;7075;53.574;10.054;2023-07-31T12:36:18;1.87;;;0.60;;
13999;SDS011;7075;53.574;10.054;2023-07-31T12:38:46;1.87;;;0.80;;
13999;SDS011;7075;53.574;10.054;2023-07-31T12:41:14;2.17;;;0.50;;
13999;SDS011;7075;53.574;10.054;2023-07-31T12:43:44;1.33;;;0.67;;
13999;SDS011;7075;53.574;10.054;2023-07-31T12:46:12;1.73;;;0.80;;
13999;SDS011;7075;53.574;10.054;2023-07-31T12:48:40;0.50;;;0.50;;
13999;SDS011;7075;53.574;10.054;2023-07-31T12:51:09;0.87;;;0.60;;
13999;SDS011;7075;53.574;10.054;2023-07-31T12:53:35;0.50;;;0.47;;
13999;SDS011;7075;53.574;10.054;2023-07-31T12:56:03;1.20;;;0.53;;
13999;SDS011;7075;53.574;10.054;2023-07-31T12:58:29;1.13;;;0.33;;
13999;SDS011;7075;53.574;10.054;2023-07-31T13:00:57;1.70;;;0.40;;
13999;SDS011;7075;53.574;10.054;2023-07-31T13:03:24;0.50;;;0.50;;
13999;SDS011;7075;53.574;10.054;2023-07-31T13:05:50;1.37;;;0.60;;
13999;SDS011;7075;53.574;10.054;2023-07-31T13:08:19;0.40;;;0.40;;
13999;SDS011;7075;53.574;10.054;2023-07-31T13:10:45;1.73;;;0.97;;
13999;SDS011;7075;53.574;10.054;2023-07-31T13:13:17;0.40;;;0.40;;
13999;SDS011;7075;53.574;10.054;2023-07-31T13:15:43;0.50;;;0.47;;
13999;SDS011;7075;53.574;10.054;2023-07-31T13:18:10;0.50;;;0.50;;
13999;SDS011;7075;53.574;10.054;2023-07-31T13:20:36;1.20;;;0.63;;
13999;SDS011;7075;53.574;10.054;2023-07-31T13:23:05;0.43;;;0.43;;
13999;SDS011;7075;53.574;10.054;2023-07-31T13:25:32;0.70;;;0.50;;
13999;SDS011;7075;53.574;10.054;2023-07-31T13:27:59;0.43;;;0.43;;
13999;SDS011;7075;53.574;10.054;2023-07-31T13:30:26;0.60;;;0.60;;
13999;SDS011;7075;53.574;10.054;2023-07-31T13:32:54;1.23;;;1.00;;
13999;SDS011;7075;53.574;10.054;2023-07-31T13:35:22;1.13;;;0.47;;
13999;SDS011;7075;53.574;10.054;2023-07-31T13:37:48;0.40;;;0.40;;
13999;SDS011;7075;53.574;10.054;2023-07-31T13:40:14;0.40;;;0.40;;
13999;SDS011;7075;53.574;10.054;2023-07-31T13:42:40;1.00;;;0.70;;
13999;SDS011;7075;53.574;10.054;2023-07-31T13:45:08;0.70;;;0.50;;
13999;SDS011;7075;53.574;10.054;2023-07-31T13:47:36;0.70;;;0.53;;
13999;SDS011;7075;53.574;10.054;2023-07-31T13:50:02;1.00;;;0.60;;
13999;SDS011;7075;53.574;10.054;2023-07-31T13:52:28;0.60;;;0.60;;
13999;SDS011;7075;53.574;10.054;2023-07-31T13:54:56;1.47;;;0.73;;
13999;SDS011;7075;53.574;10.054;2023-07-31T13:57:23;1.57;;;0.77;;
13999;SDS011;7075;53.574;10.054;2023-07-31T13:59:49;2.97;;;1.17;;
13999;SDS011;7075;53.574;10.054;2023-07-31T14:02:18;1.63;;;0.90;;
13999;SDS011;7075;53.574;10.054;2023-07-31T14:04:45;0.80;;;0.80;;
13999;SDS011;7075;53.574;10.054;2023-07-31T14:07:11;1.43;;;0.70;;
13999;SDS011;7075;53.574;10.054;2023-07-31T14:09:37;1.00;;;0.90;;
13999;SDS011;7075;53.574;10.054;2023-07-31T14:12:03;1.27;;;0.90;;
13999;SDS011;7075;53.574;10.054;2023-07-31T14:14:30;1.37;;;0.87;;
13999;SDS011;7075;53.574;10.054;2023-07-31T14:16:59;1.10;;;0.80;;
13999;SDS011;7075;53.574;10.054;2023-07-31T14:19:25;1.10;;;0.77;;
13999;SDS011;7075;53.574;10.054;2023-07-31T14:21:53;1.67;;;0.90;;
13999;SDS011;7075;53.574;10.054;2023-07-31T14:24:20;1.13;;;0.80;;
13999;SDS011;7075;53.574;10.054;2023-07-31T14:26:46;2.77;;;0.90;;
13999;SDS011;7075;53.574;10.054;2023-07-31T14:29:14;1.30;;;1.03;;
13999;SDS011;7075;53.574;10.054;2023-07-31T14:31:39;1.37;;;1.00;;
13999;SDS011;7075;53.574;10.054;2023-07-31T14:34:07;1.20;;;1.00;;
13999;SDS011;7075;53.574;10.054;2023-07-31T14:36:34;1.40;;;1.07;;
13999;SDS011;7075;53.574;10.054;2023-07-31T14:39:01;1.10;;;1.00;;
13999;SDS011;7075;53.574;10.054;2023-07-31T14:41:28;1.00;;;0.67;;
13999;SDS011;7075;53.574;10.054;2023-07-31T14:43:57;2.03;;;1.30;;
13999;SDS011;7075;53.574;10.054;2023-07-31T14:46:23;1.00;;;1.00;;
13999;SDS011;7075;53.574;10.054;2023-07-31T14:48:49;1.73;;;0.93;;
13999;SDS011;7075;53.574;10.054;2023-07-31T14:51:15;4.97;;;1.30;;
13999;SDS011;7075;53.574;10.054;2023-07-31T14:53:42;4.77;;;1.20;;
13999;SDS011;7075;53.574;10.054;2023-07-31T14:56:09;2.00;;;1.03;;
13999;SDS011;7075;53.574;10.054;2023-07-31T14:58:37;1.60;;;1.10;;
13999;SDS011;7075;53.574;10.054;2023-07-31T15:01:04;1.30;;;0.90;;
13999;SDS011;7075;53.574;10.054;2023-07-31T15:03:30;2.00;;;0.80;;
13999;SDS011;7075;53.574;10.054;2023-07-31T15:05:58;1.80;;;1.00;;